ARG1330 SABE-SACO
Flight info
| Callsign | ARG1330 |
|---|---|
| Flight time | N/A |
| Altitude | 32000 |
| Route | ATOVO4B ATOVO UW5 ASISA ASISA1Q |
| Aircraft | B738/M-SABDFGRVYL/LB2 |
Departure
| Time | 2026-05-03 21:58 |
|---|---|
| Airport | Aeroparque Jorge Newbery (SABE) |
Arrival
| Time | N/A |
|---|---|
| Airport | Ingeniero Aeronáutico Ambrosio L.V. Taravella International Airport (SACO) |
| Time | Latitude | Longitude | Altitude | Speed | Heading |
|---|---|---|---|---|---|
| 2026-05-03 20:48 | -34.55744 | -58.41367 | 28 ft | 0 kts | 32° |
| 2026-05-03 21:33 | -34.55754 | -58.41377 | 27 ft | 2 kts | 48° |
| 2026-05-03 21:33 | -34.55764 | -58.41389 | 27 ft | 0 kts | 40° |
| 2026-05-03 21:33 | -34.55770 | -58.41394 | 27 ft | 1 kts | 9° |
| 2026-05-03 21:34 | -34.55779 | -58.41391 | 27 ft | 1 kts | 314° |
| 2026-05-03 21:34 | -34.55782 | -58.41386 | 27 ft | 0 kts | 299° |
| 2026-05-03 21:34 | -34.55783 | -58.41382 | 27 ft | 0 kts | 303° |
| 2026-05-03 21:37 | -34.55773 | -58.41401 | 27 ft | 4 kts | 303° |
| 2026-05-03 21:37 | -34.55746 | -58.41453 | 27 ft | 10 kts | 300° |
| 2026-05-03 21:38 | -34.55720 | -58.41522 | 27 ft | 7 kts | 270° |
| 2026-05-03 21:38 | -34.55760 | -58.41577 | 27 ft | 9 kts | 210° |
| 2026-05-03 21:38 | -34.55804 | -58.41581 | 27 ft | 5 kts | 128° |
| 2026-05-03 21:38 | -34.55834 | -58.41514 | 27 ft | 11 kts | 116° |
| 2026-05-03 21:39 | -34.55879 | -58.41406 | 27 ft | 16 kts | 117° |
| 2026-05-03 21:39 | -34.55930 | -58.41289 | 27 ft | 13 kts | 122° |
| 2026-05-03 21:39 | -34.55976 | -58.41212 | 27 ft | 8 kts | 127° |
| 2026-05-03 21:39 | -34.56019 | -58.41143 | 27 ft | 12 kts | 126° |
| 2026-05-03 21:40 | -34.56073 | -58.41056 | 27 ft | 11 kts | 128° |
| 2026-05-03 21:40 | -34.56123 | -58.40980 | 27 ft | 12 kts | 128° |
| 2026-05-03 21:40 | -34.56170 | -58.40886 | 27 ft | 11 kts | 104° |
| 2026-05-03 21:40 | -34.56190 | -58.40794 | 27 ft | 12 kts | 122° |
| 2026-05-03 21:41 | -34.56235 | -58.40710 | 27 ft | 10 kts | 123° |
| 2026-05-03 21:41 | -34.56255 | -58.40676 | 27 ft | 0 kts | 124° |
| 2026-05-03 21:42 | -34.56255 | -58.40675 | 27 ft | 0 kts | 124° |
| 2026-05-03 21:42 | -34.56262 | -58.40663 | 27 ft | 2 kts | 124° |
| 2026-05-03 21:42 | -34.56275 | -58.40640 | 27 ft | 2 kts | 124° |
| 2026-05-03 21:43 | -34.56276 | -58.40639 | 27 ft | 0 kts | 124° |
| 2026-05-03 21:43 | -34.56279 | -58.40632 | 27 ft | 1 kts | 124° |
| 2026-05-03 21:44 | -34.56287 | -58.40618 | 27 ft | 2 kts | 124° |
| 2026-05-03 21:44 | -34.56297 | -58.40601 | 27 ft | 2 kts | 124° |
| 2026-05-03 21:44 | -34.56301 | -58.40593 | 27 ft | 0 kts | 124° |
| 2026-05-03 21:49 | -34.56303 | -58.40589 | 27 ft | 0 kts | 124° |
| 2026-05-03 21:51 | -34.56308 | -58.40581 | 27 ft | 2 kts | 126° |
| 2026-05-03 21:51 | -34.56319 | -58.40564 | 27 ft | 2 kts | 128° |
| 2026-05-03 21:51 | -34.56326 | -58.40552 | 27 ft | 1 kts | 130° |
| 2026-05-03 21:52 | -34.56337 | -58.40538 | 27 ft | 2 kts | 132° |
| 2026-05-03 21:52 | -34.56341 | -58.40533 | 27 ft | 0 kts | 133° |
| 2026-05-03 21:54 | -34.56347 | -58.40525 | 27 ft | 3 kts | 135° |
| 2026-05-03 21:54 | -34.56375 | -58.40494 | 27 ft | 7 kts | 137° |
| 2026-05-03 21:54 | -34.56418 | -58.40448 | 27 ft | 7 kts | 138° |
| 2026-05-03 21:55 | -34.56427 | -58.40438 | 27 ft | 0 kts | 138° |
| 2026-05-03 21:56 | -34.56439 | -58.40425 | 27 ft | 5 kts | 139° |
| 2026-05-03 21:56 | -34.56480 | -58.40383 | 27 ft | 10 kts | 143° |
| 2026-05-03 21:56 | -34.56543 | -58.40401 | 27 ft | 9 kts | 217° |
| 2026-05-03 21:56 | -34.56555 | -58.40439 | 27 ft | 3 kts | 294° |
| 2026-05-03 21:57 | -34.56551 | -58.40449 | 27 ft | 0 kts | 300° |
| 2026-05-03 21:57 | -34.56548 | -58.40453 | 27 ft | 3 kts | 302° |
| 2026-05-03 21:57 | -34.56473 | -58.40588 | 27 ft | 51 kts | 304° |
| 2026-05-03 21:57 | -34.56143 | -58.41181 | 27 ft | 117 kts | 304° |
| 2026-05-03 21:58 | -34.55573 | -58.42203 | 78 ft | 167 kts | 304° |
| 2026-05-03 21:58 | -34.54915 | -58.43392 | 647 ft | 172 kts | 305° |
| 2026-05-03 21:58 | -34.54131 | -58.44467 | 1237 ft | 177 kts | 326° |
| 2026-05-03 21:58 | -34.52881 | -58.44874 | 1457 ft | 201 kts | 8° |
| 2026-05-03 21:59 | -34.51595 | -58.44113 | 1892 ft | 219 kts | 38° |
| 2026-05-03 21:59 | -34.50320 | -58.42981 | 2405 ft | 237 kts | 31° |
| 2026-05-03 21:59 | -34.48882 | -58.41901 | 3049 ft | 248 kts | 31° |
| 2026-05-03 21:59 | -34.47432 | -58.40787 | 3746 ft | 252 kts | 31° |
| 2026-05-03 22:00 | -34.45942 | -58.39636 | 4339 ft | 258 kts | 31° |
| 2026-05-03 22:00 | -34.44409 | -58.38448 | 4966 ft | 263 kts | 30° |
| 2026-05-03 22:00 | -34.42824 | -58.37233 | 5048 ft | 271 kts | 31° |
| 2026-05-03 22:00 | -34.41198 | -58.36018 | 5651 ft | 273 kts | 24° |
| 2026-05-03 22:01 | -34.39399 | -58.35466 | 6447 ft | 267 kts | 356° |
| 2026-05-03 22:01 | -34.37670 | -58.36133 | 7141 ft | 266 kts | 325° |
| 2026-05-03 22:01 | -34.36212 | -58.37474 | 7944 ft | 263 kts | 324° |
| 2026-05-03 22:01 | -34.34647 | -58.38749 | 8544 ft | 269 kts | 326° |
| 2026-05-03 22:02 | -34.33048 | -58.40015 | 9302 ft | 270 kts | 325° |
| 2026-05-03 22:02 | -34.31473 | -58.41267 | 9970 ft | 273 kts | 325° |
| 2026-05-03 22:02 | -34.29829 | -58.42573 | 10463 ft | 284 kts | 324° |
| 2026-05-03 22:02 | -34.28220 | -58.43855 | 10572 ft | 306 kts | 324° |
| 2026-05-03 22:03 | -34.26296 | -58.45384 | 10809 ft | 326 kts | 324° |
| 2026-05-03 22:03 | -34.24361 | -58.46921 | 11262 ft | 336 kts | 324° |
| 2026-05-03 22:03 | -34.22381 | -58.48490 | 11792 ft | 343 kts | 324° |
| 2026-05-03 22:03 | -34.20352 | -58.50100 | 12458 ft | 346 kts | 324° |
| 2026-05-03 22:04 | -34.18333 | -58.51701 | 13142 ft | 350 kts | 323° |
| 2026-05-03 22:04 | -34.16285 | -58.53326 | 13783 ft | 353 kts | 323° |
| 2026-05-03 22:04 | -34.14241 | -58.54948 | 14434 ft | 356 kts | 323° |
| 2026-05-03 22:04 | -34.12165 | -58.56610 | 15096 ft | 359 kts | 320° |
| 2026-05-03 22:05 | -34.10413 | -58.58720 | 15676 ft | 357 kts | 299° |
| 2026-05-03 22:05 | -34.09569 | -58.61509 | 16390 ft | 353 kts | 275° |
| 2026-05-03 22:05 | -34.09808 | -58.64414 | 16974 ft | 356 kts | 251° |
| 2026-05-03 22:05 | -34.11090 | -58.66939 | 17634 ft | 361 kts | 229° |
| 2026-05-03 22:06 | -34.13091 | -58.68862 | 18266 ft | 368 kts | 217° |
| 2026-05-03 22:06 | -34.15044 | -58.70773 | 18806 ft | 367 kts | 231° |
| 2026-05-03 22:06 | -34.16296 | -58.73447 | 19377 ft | 365 kts | 255° |
| 2026-05-03 22:06 | -34.16507 | -58.76552 | 19993 ft | 368 kts | 274° |
| 2026-05-03 22:07 | -34.16223 | -58.79624 | 20526 ft | 371 kts | 273° |
| 2026-05-03 22:07 | -34.16140 | -58.82785 | 20994 ft | 374 kts | 267° |
| 2026-05-03 22:07 | -34.16232 | -58.85739 | 21546 ft | 374 kts | 265° |